createdAt,value
2023-08-11T00:04:20.571Z,96.70
2023-08-11T00:14:29.394Z,97.04
2023-08-11T00:24:31.328Z,95.34
2023-08-11T00:34:35.243Z,95.62
2023-08-11T00:44:37.258Z,95.15
2023-08-11T00:54:47.750Z,91.52
2023-08-11T01:04:50.057Z,92.94
2023-08-11T01:15:27.019Z,94.21
2023-08-11T01:25:31.233Z,94.14
2023-08-11T01:35:58.605Z,93.80
2023-08-11T01:46:00.916Z,94.40
2023-08-11T01:56:04.296Z,94.56
2023-08-11T02:06:07.234Z,94.21
2023-08-11T02:16:17.251Z,94.42
2023-08-11T02:26:19.220Z,94.24
2023-08-11T02:36:22.226Z,95.51
2023-08-11T02:46:25.143Z,94.13
2023-08-11T02:56:27.112Z,93.46
2023-08-11T03:06:29.277Z,94.63
2023-08-11T03:16:34.029Z,94.70
2023-08-11T03:26:35.951Z,95.46
2023-08-11T03:36:37.902Z,95.34
2023-08-11T03:46:42.005Z,95.57
2023-08-11T03:56:45.087Z,95.17
2023-08-11T04:06:53.342Z,93.96
2023-08-11T04:16:55.672Z,90.63
2023-08-11T04:26:57.609Z,82.22
2023-08-11T04:37:06.705Z,77.24
2023-08-11T04:47:24.856Z,75.04
2023-08-11T04:57:26.852Z,75.48
2023-08-11T05:07:28.859Z,73.75
2023-08-11T05:17:32.442Z,71.01
2023-08-11T05:27:35.648Z,69.05
2023-08-11T05:37:42.617Z,64.25
2023-08-11T05:47:44.649Z,65.34
2023-08-11T05:57:46.702Z,60.90
2023-08-11T06:08:00.111Z,58.29
2023-08-11T06:18:08.287Z,53.86
2023-08-11T06:28:18.413Z,55.05
2023-08-11T06:38:21.542Z,53.78
2023-08-11T06:48:31.792Z,51.98
2023-08-11T06:58:34.742Z,53.55
2023-08-11T07:08:44.612Z,49.51
2023-08-11T07:18:46.500Z,49.09
2023-08-11T07:28:48.547Z,49.14
2023-08-11T07:39:09.209Z,47.74
2023-08-11T07:49:21.561Z,47.11
2023-08-11T07:59:48.253Z,45.01
2023-08-11T08:09:50.243Z,45.46
2023-08-11T08:19:58.647Z,43.04
2023-08-11T08:30:00.600Z,42.10
2023-08-11T08:40:03.134Z,40.50
2023-08-11T08:50:05.910Z,43.14
2023-08-11T09:00:16.131Z,41.39
2023-08-11T09:10:19.783Z,42.59
2023-08-11T09:20:30.686Z,39.84
2023-08-11T09:30:33.213Z,43.41
2023-08-11T09:40:36.644Z,41.17
2023-08-11T09:50:42.261Z,38.42
2023-08-11T10:00:46.627Z,39.26
2023-08-11T10:10:48.801Z,39.88
2023-08-11T10:20:52.724Z,36.06
2023-08-11T10:31:00.291Z,37.87
2023-08-11T10:41:05.138Z,36.79
2023-08-11T10:51:24.630Z,38.56
2023-08-11T11:01:26.887Z,39.36
2023-08-11T11:11:29.084Z,39.30
2023-08-11T11:21:32.309Z,38.78
2023-08-11T11:31:36.999Z,40.13
2023-08-11T11:41:39.838Z,41.42
2023-08-11T11:51:43.587Z,40.06
2023-08-11T12:01:46.959Z,40.55
2023-08-11T12:11:50.179Z,39.51
2023-08-11T12:21:52.202Z,41.32
2023-08-11T12:31:54.335Z,40.49
2023-08-11T12:41:56.697Z,40.92
2023-08-11T12:51:58.816Z,38.00
2023-08-11T13:02:08.133Z,41.45
2023-08-11T13:12:19.524Z,39.20
2023-08-11T13:22:21.563Z,39.58
2023-08-11T13:32:31.749Z,39.67
2023-08-11T13:42:44.225Z,38.39
2023-08-11T13:52:51.280Z,37.83
2023-08-11T14:03:10.598Z,40.05
2023-08-11T14:13:15.968Z,38.25
2023-08-11T14:23:19.041Z,37.64
2023-08-11T14:33:21.246Z,39.11
2023-08-11T14:43:23.346Z,39.92
2023-08-11T14:53:31.530Z,40.46
2023-08-11T15:03:41.678Z,41.27
2023-08-11T15:13:53.030Z,42.13
2023-08-11T15:23:57.106Z,42.38
2023-08-11T15:34:15.462Z,42.99
2023-08-11T15:44:18.646Z,42.98
2023-08-11T15:54:30.131Z,44.16
2023-08-11T16:04:38.381Z,42.67
2023-08-11T16:14:49.596Z,42.32
2023-08-11T16:24:51.752Z,42.97
2023-08-11T16:34:57.903Z,43.86
2023-08-11T16:44:59.958Z,43.50
2023-08-11T16:55:07.033Z,43.61
2023-08-11T17:05:10.513Z,44.11
2023-08-11T17:15:12.910Z,43.80
2023-08-11T17:25:19.100Z,43.78
2023-08-11T17:35:29.087Z,45.49
2023-08-11T17:45:40.024Z,47.47
2023-08-11T17:55:45.073Z,47.91
2023-08-11T18:05:54.248Z,49.52
2023-08-11T18:16:03.582Z,51.51
2023-08-11T18:26:17.869Z,59.93
2023-08-11T18:36:46.055Z,61.02
2023-08-11T18:46:54.229Z,60.87
2023-08-11T19:07:03.341Z,66.29
2023-08-11T19:17:14.004Z,67.68
2023-08-11T19:27:27.726Z,71.76
2023-08-11T19:37:31.207Z,71.17
2023-08-11T19:47:41.797Z,71.08
2023-08-11T19:57:46.138Z,71.74
2023-08-11T20:07:49.282Z,73.66
2023-08-11T20:17:51.736Z,74.34
2023-08-11T20:27:54.260Z,77.90
2023-08-11T20:38:03.418Z,79.71
2023-08-11T20:48:15.995Z,79.16
2023-08-11T20:58:24.565Z,80.99
2023-08-11T21:08:29.082Z,81.08
2023-08-11T21:18:32.124Z,82.00
2023-08-11T21:28:54.250Z,82.88
2023-08-11T21:39:21.742Z,83.24
2023-08-11T21:49:34.499Z,84.09
2023-08-11T21:59:38.952Z,85.87
2023-08-11T22:09:47.169Z,86.40
2023-08-11T22:19:59.664Z,87.24
2023-08-11T22:30:09.694Z,89.21
2023-08-11T22:40:13.842Z,88.82
2023-08-11T22:50:17.319Z,90.16
2023-08-11T23:00:20.147Z,90.28
2023-08-11T23:10:23.453Z,90.80
2023-08-11T23:20:26.411Z,91.07
2023-08-11T23:30:28.966Z,91.33
2023-08-11T23:40:43.984Z,91.21
2023-08-11T23:50:59.912Z,92.69
